Terminal Aerodrome Forecast
Issued by NWS

Home | Current Version | Previous Version | Graphics & Text | Print | Product List | Glossary On
Versions: 1 2 3 4 5 6 7 8 9 10 11 12 13 14 15 16 17 18 19 20 21 22 23 24 25
000
FTUS43 KABR 140500
TAFATY
TAF
KATY 140521Z 1406/1506 36018KT P6SM SCT030
     FM141200 35008KT P6SM SCT250
     FM141800 34014KT P6SM BKN050
     FM150300 35008KT P6SM SKC=

USA.gov is the U.S. government's official web portal to all federal, state and local government web resources and services.